Time;durP1;ratioP1;P1;durP2;ratioP2;P2;SDS_P1;SDS_P2;PMS_P1;PMS_P2;Temp;Humidity;BMP_temperature;BMP_pressure;BME280_temperature;BME280_humidity;BME280_pressure;Samples;Min_cycle;Max_cycle;Signal;HPM_P1;HPM_P2
2023/05/15 00:01:06;;;;;;;15.60;11.70;;;9.80;99.90;;;;;;5012381;28;20030;-76
2023/05/15 00:03:32;;;;;;;15.13;11.87;;;9.70;99.90;;;;;;5011628;28;20033;-76
2023/05/15 00:05:58;;;;;;;15.23;11.97;;;9.70;99.90;;;;;;5012247;28;20048;-76
2023/05/15 00:08:23;;;;;;;13.57;11.80;;;9.70;99.90;;;;;;5012032;28;20537;-76
2023/05/15 00:10:49;;;;;;;13.57;12.10;;;9.70;99.90;;;;;;5012955;28;20039;-76
2023/05/15 00:13:17;;;;;;;15.13;11.87;;;9.70;99.90;;;;;;5012339;28;20038;-76
2023/05/15 00:15:43;;;;;;;16.83;12.80;;;9.70;99.90;;;;;;5012310;28;20033;-75
2023/05/15 00:18:08;;;;;;;15.80;12.93;;;9.70;99.90;;;;;;5012281;28;20405;-75
2023/05/15 00:20:34;;;;;;;16.57;12.90;;;9.70;99.90;;;;;;5011732;28;20809;-75
2023/05/15 00:22:59;;;;;;;15.47;12.80;;;9.70;99.90;;;;;;5012361;28;20052;-76
2023/05/15 00:25:25;;;;;;;16.50;12.73;;;9.70;99.90;;;;;;5010239;28;20033;-76
2023/05/15 00:27:50;;;;;;;19.70;14.77;;;9.70;99.90;;;;;;5012113;28;21419;-76
2023/05/15 00:30:16;;;;;;;18.37;14.13;;;9.70;99.90;;;;;;5011527;28;20061;-76
2023/05/15 00:32:41;;;;;;;19.20;14.13;;;9.60;99.90;;;;;;5038952;22;20026;-83
2023/05/15 00:35:07;;;;;;;17.87;14.77;;;9.60;99.90;;;;;;5016600;28;20044;-84
2023/05/15 00:37:33;;;;;;;20.10;14.67;;;9.60;99.90;;;;;;5018830;28;20119;-86
2023/05/15 00:39:58;;;;;;;19.63;15.33;;;9.60;99.90;;;;;;5018721;28;20778;-86
2023/05/15 00:42:25;;;;;;;20.40;14.83;;;9.60;99.90;;;;;;5017700;28;21450;-86
2023/05/15 00:44:51;;;;;;;19.10;14.57;;;9.60;99.90;;;;;;5015530;28;20434;-85
2023/05/15 00:47:19;;;;;;;19.33;14.77;;;9.60;99.90;;;;;;5017623;28;20049;-86
2023/05/15 00:49:46;;;;;;;19.10;14.37;;;9.60;99.90;;;;;;5028938;28;20041;-84
2023/05/15 00:52:13;;;;;;;19.03;15.23;;;9.60;99.90;;;;;;5030259;28;20072;-84
2023/05/15 00:54:39;;;;;;;20.40;15.27;;;9.50;99.90;;;;;;5028904;28;20037;-84
2023/05/15 00:57:07;;;;;;;22.33;16.63;;;9.50;99.90;;;;;;5029609;28;20033;-85
2023/05/15 00:59:33;;;;;;;20.83;16.13;;;9.50;99.90;;;;;;5030917;28;20041;-84
2023/05/15 01:01:59;;;;;;;22.73;16.90;;;9.50;99.90;;;;;;5029366;28;20022;-85
2023/05/15 01:04:24;;;;;;;20.03;15.77;;;9.50;99.90;;;;;;5026071;28;20040;-85
2023/05/15 01:06:52;;;;;;;20.97;15.97;;;9.50;99.90;;;;;;5027232;28;20042;-84
2023/05/15 01:09:18;;;;;;;24.27;17.67;;;9.40;99.90;;;;;;5027761;28;20021;-85
2023/05/15 01:11:46;;;;;;;21.43;16.37;;;9.40;99.90;;;;;;5030862;28;20280;-84
2023/05/15 01:14:12;;;;;;;22.13;16.83;;;9.50;99.90;;;;;;5031610;28;20117;-84
2023/05/15 01:16:37;;;;;;;22.23;16.60;;;9.50;99.90;;;;;;5030882;28;20207;-84
2023/05/15 01:19:04;;;;;;;21.57;16.97;;;9.40;99.90;;;;;;5030472;28;20453;-84
2023/05/15 01:21:35;;;;;;;20.83;15.50;;;9.40;99.90;;;;;;5029851;28;20089;-84
2023/05/15 01:24:06;;;;;;;19.80;15.40;;;9.40;99.90;;;;;;5028843;28;20087;-84
2023/05/15 01:26:50;;;;;;;20.93;16.30;;;9.40;99.90;;;;;;5028666;28;20041;-85
2023/05/15 01:29:24;;;;;;;20.83;16.47;;;9.40;99.90;;;;;;5030024;28;20030;-84
2023/05/15 01:32:01;;;;;;;20.77;16.37;;;9.40;99.90;;;;;;5029651;28;20033;-84
2023/05/15 01:34:32;;;;;;;22.87;17.13;;;9.40;99.90;;;;;;5029595;28;20033;-83
2023/05/15 01:37:02;;;;;;;24.07;16.67;;;9.40;99.90;;;;;;5030283;28;20041;-84
2023/05/15 01:39:31;;;;;;;21.03;16.47;;;9.40;99.90;;;;;;5031000;28;20243;-84
2023/05/15 01:42:03;;;;;;;22.57;16.00;;;9.40;99.90;;;;;;5030503;28;20064;-84
2023/05/15 01:44:32;;;;;;;20.93;16.73;;;9.40;99.90;;;;;;5028659;28;20043;-85
2023/05/15 01:47:00;;;;;;;21.47;16.07;;;9.40;99.90;;;;;;5027838;28;20081;-84
2023/05/15 01:49:27;;;;;;;22.93;16.77;;;9.40;99.90;;;;;;5029207;28;20034;-84
2023/05/15 01:52:05;;;;;;;19.20;15.93;;;9.40;99.90;;;;;;5027962;28;20650;-83
2023/05/15 01:54:33;;;;;;;20.63;16.53;;;9.40;99.90;;;;;;5027310;28;20097;-85
2023/05/15 01:56:59;;;;;;;22.83;16.77;;;9.40;99.90;;;;;;5028943;28;20518;-85
2023/05/15 01:59:27;;;;;;;21.37;16.30;;;9.40;99.90;;;;;;5028066;28;20524;-84
2023/05/15 02:01:53;;;;;;;20.17;16.17;;;9.40;99.90;;;;;;5027754;28;20045;-84
2023/05/15 02:04:19;;;;;;;21.87;16.97;;;9.40;99.90;;;;;;5026440;28;20033;-84
2023/05/15 02:06:46;;;;;;;22.67;16.97;;;9.40;99.90;;;;;;5026755;28;20490;-84
2023/05/15 02:09:12;;;;;;;20.50;15.60;;;9.40;99.90;;;;;;5028036;28;20036;-84
2023/05/15 02:11:38;;;;;;;22.27;17.20;;;9.40;99.90;;;;;;5026862;28;20037;-84
2023/05/15 02:14:04;;;;;;;22.73;17.03;;;9.40;99.90;;;;;;5026105;28;20030;-85
2023/05/15 02:16:29;;;;;;;21.97;16.47;;;9.30;99.90;;;;;;5025595;28;20132;-84
2023/05/15 02:18:55;;;;;;;21.57;16.80;;;9.30;99.90;;;;;;5025934;28;20117;-84
2023/05/15 02:21:21;;;;;;;22.40;16.57;;;9.30;99.90;;;;;;5025639;28;20029;-84
2023/05/15 02:23:46;;;;;;;22.80;17.03;;;9.30;99.90;;;;;;5024670;28;20069;-85
2023/05/15 02:26:36;;;;;;;22.10;16.97;;;9.30;99.90;;;;;;5023127;28;20180;-85
2023/05/15 02:29:12;;;;;;;20.50;16.33;;;9.30;99.90;;;;;;5022492;28;20022;-85
2023/05/15 02:31:56;;;;;;;21.70;16.53;;;9.30;99.90;;;;;;5022786;28;20042;-84
2023/05/15 02:34:41;;;;;;;22.40;17.97;;;9.30;99.90;;;;;;5021433;28;20030;-84
2023/05/15 02:37:12;;;;;;;23.38;16.33;;;9.20;99.90;;;;;;5028961;28;20443;-84
2023/05/15 02:39:39;;;;;;;26.50;18.73;;;9.20;99.90;;;;;;5029092;28;20028;-85
2023/05/15 02:42:06;;;;;;;22.40;16.80;;;9.20;99.90;;;;;;5029628;28;20112;-84
2023/05/15 02:44:34;;;;;;;26.13;19.17;;;9.20;99.90;;;;;;5028505;28;20108;-84
2023/05/15 02:47:01;;;;;;;23.07;18.20;;;9.20;99.90;;;;;;5027684;28;20083;-84
2023/05/15 02:49:26;;;;;;;23.07;18.17;;;9.10;99.90;;;;;;5028655;28;20504;-85
2023/05/15 02:51:52;;;;;;;23.63;17.00;;;9.10;99.90;;;;;;5028766;28;20041;-84
2023/05/15 02:54:17;;;;;;;21.97;17.17;;;9.10;99.90;;;;;;5029004;28;20036;-84
2023/05/15 02:56:43;;;;;;;24.10;17.80;;;9.10;99.90;;;;;;5028210;28;20192;-85
2023/05/15 02:59:08;;;;;;;21.60;17.00;;;9.10;99.90;;;;;;5028449;28;20043;-84
2023/05/15 03:01:34;;;;;;;23.27;17.13;;;9.10;99.90;;;;;;5027857;28;20038;-84
2023/05/15 03:03:59;;;;;;;24.00;16.97;;;9.10;99.90;;;;;;5026899;28;20041;-84
2023/05/15 03:06:25;;;;;;;22.00;17.30;;;9.10;99.90;;;;;;5028042;28;20118;-84
2023/05/15 03:08:50;;;;;;;23.33;17.53;;;9.10;99.90;;;;;;5026572;28;20033;-84
2023/05/15 03:11:18;;;;;;;22.90;17.60;;;9.20;99.90;;;;;;5026521;28;20041;-84
2023/05/15 03:13:43;;;;;;;25.77;18.33;;;9.20;99.90;;;;;;5027316;28;20087;-84
2023/05/15 03:16:09;;;;;;;24.33;17.47;;;9.10;99.90;;;;;;5027650;28;20033;-85
2023/05/15 03:18:34;;;;;;;22.80;17.40;;;9.10;99.90;;;;;;5028450;28;20072;-84
2023/05/15 03:21:00;;;;;;;22.63;17.50;;;9.10;99.90;;;;;;5029254;28;20045;-85
2023/05/15 03:23:25;;;;;;;25.27;16.47;;;9.10;99.90;;;;;;5030552;28;20044;-85
2023/05/15 03:25:51;;;;;;;21.47;16.60;;;9.10;99.90;;;;;;5026513;28;20042;-84
2023/05/15 03:28:16;;;;;;;21.13;14.77;;;9.10;99.90;;;;;;5028620;28;20046;-84
2023/05/15 03:30:45;;;;;;;20.47;15.77;;;9.10;99.90;;;;;;5027951;28;20046;-85
2023/05/15 03:33:10;;;;;;;21.53;15.63;;;9.10;99.90;;;;;;5025778;28;20485;-85
2023/05/15 03:35:36;;;;;;;18.97;15.50;;;9.10;99.90;;;;;;5027119;28;20049;-84
2023/05/15 03:38:01;;;;;;;20.00;15.27;;;9.10;99.90;;;;;;5026596;28;20047;-84
2023/05/15 03:40:29;;;;;;;19.33;14.87;;;9.10;99.90;;;;;;5029124;28;20033;-85
2023/05/15 03:42:55;;;;;;;19.87;14.93;;;9.10;99.90;;;;;;5026732;28;20466;-84
2023/05/15 03:45:21;;;;;;;21.37;15.53;;;9.10;99.90;;;;;;5025716;28;20060;-85
2023/05/15 03:47:47;;;;;;;23.07;16.00;;;9.10;99.90;;;;;;5026689;28;20026;-84
2023/05/15 03:50:12;;;;;;;18.90;14.33;;;9.10;99.90;;;;;;5026127;28;20025;-84
2023/05/15 03:52:38;;;;;;;19.33;15.07;;;9.10;99.90;;;;;;5026584;28;20056;-84
2023/05/15 03:55:04;;;;;;;18.10;14.57;;;9.10;99.90;;;;;;5025833;28;20025;-83
2023/05/15 03:57:31;;;;;;;20.57;15.03;;;9.10;99.90;;;;;;5026947;28;20445;-84
2023/05/15 03:59:56;;;;;;;17.73;14.00;;;9.10;99.90;;;;;;5008574;28;20026;-85
2023/05/15 04:02:22;;;;;;;19.83;13.53;;;9.10;99.90;;;;;;5026929;28;20049;-84
2023/05/15 04:04:47;;;;;;;17.97;14.80;;;9.20;99.90;;;;;;5026488;28;20742;-84
2023/05/15 04:07:13;;;;;;;21.00;15.27;;;9.20;99.90;;;;;;5027435;28;20053;-84
2023/05/15 04:09:38;;;;;;;20.73;15.97;;;9.20;99.90;;;;;;5028056;28;20030;-85
2023/05/15 04:12:04;;;;;;;19.43;14.27;;;9.20;99.90;;;;;;5030080;28;20083;-85
2023/05/15 04:14:30;;;;;;;17.97;13.83;;;9.30;99.90;;;;;;5026669;28;20033;-84
2023/05/15 04:16:55;;;;;;;19.80;13.73;;;9.40;99.90;;;;;;5028514;28;20515;-84
2023/05/15 04:19:21;;;;;;;19.47;13.83;;;9.40;99.90;;;;;;5029549;28;20080;-85
2023/05/15 04:21:46;;;;;;;18.57;13.73;;;9.40;99.90;;;;;;5028618;28;20029;-85
2023/05/15 04:24:12;;;;;;;16.20;13.43;;;9.40;99.90;;;;;;5028569;28;20041;-85
2023/05/15 04:26:37;;;;;;;19.40;13.73;;;9.50;99.90;;;;;;5024123;28;20132;-84
2023/05/15 04:29:03;;;;;;;18.40;14.13;;;9.50;99.90;;;;;;5025208;28;20037;-85
2023/05/15 04:31:30;;;;;;;17.67;14.23;;;9.50;99.90;;;;;;5024908;28;20094;-86
2023/05/15 04:33:55;;;;;;;16.17;12.50;;;9.50;99.90;;;;;;5024817;28;20037;-87
2023/05/15 04:36:21;;;;;;;18.27;13.20;;;9.60;99.90;;;;;;5023581;28;20040;-85
2023/05/15 04:38:47;;;;;;;18.87;13.40;;;9.60;99.90;;;;;;5026699;28;20042;-85
2023/05/15 04:41:12;;;;;;;17.87;13.20;;;9.60;99.90;;;;;;5026319;28;20040;-85
2023/05/15 04:43:38;;;;;;;16.97;12.83;;;9.70;99.90;;;;;;5025976;28;20058;-86
2023/05/15 04:46:03;;;;;;;14.27;12.53;;;9.70;99.90;;;;;;5028226;28;20046;-86
2023/05/15 04:48:29;;;;;;;16.93;12.53;;;9.70;99.90;;;;;;5029002;28;20040;-85
2023/05/15 04:50:55;;;;;;;13.77;11.50;;;9.80;99.90;;;;;;5011775;28;20115;-85
2023/05/15 04:53:20;;;;;;;14.27;11.93;;;9.80;99.90;;;;;;5022405;28;20116;-77
2023/05/15 04:55:46;;;;;;;16.97;12.93;;;9.80;99.90;;;;;;5020363;28;20040;-76
2023/05/15 04:58:11;;;;;;;15.90;12.13;;;9.80;99.90;;;;;;5028150;28;20104;-86
2023/05/15 05:00:38;;;;;;;15.23;12.20;;;9.80;99.90;;;;;;5029551;28;20057;-86
2023/05/15 05:03:04;;;;;;;15.67;12.97;;;9.80;99.90;;;;;;5029057;28;20028;-86
2023/05/15 05:05:29;;;;;;;16.60;12.43;;;9.80;99.90;;;;;;5026750;28;20038;-87
2023/05/15 05:07:55;;;;;;;13.97;11.97;;;9.90;99.90;;;;;;5027243;28;20017;-87
2023/05/15 05:10:20;;;;;;;13.90;11.80;;;9.90;99.90;;;;;;5028576;28;20536;-87
2023/05/15 05:12:46;;;;;;;14.90;12.40;;;9.90;99.90;;;;;;5027166;28;20022;-88
2023/05/15 05:15:11;;;;;;;14.37;12.10;;;9.90;99.90;;;;;;5025029;28;20414;-86
2023/05/15 05:17:37;;;;;;;17.27;11.67;;;9.90;99.90;;;;;;5025212;28;21108;-87
2023/05/15 05:20:03;;;;;;;14.90;11.83;;;9.90;99.90;;;;;;5024194;28;20413;-87
2023/05/15 05:22:29;;;;;;;20.97;13.20;;;10.00;99.90;;;;;;5023086;28;20094;-87
2023/05/15 05:24:55;;;;;;;17.37;11.83;;;10.00;99.90;;;;;;5026081;28;20495;-86
2023/05/15 05:27:20;;;;;;;15.05;11.75;;;10.10;99.90;;;;;;5025737;28;20088;-86
2023/05/15 05:29:46;;;;;;;16.93;11.20;;;10.20;99.90;;;;;;5027978;28;20024;-87
2023/05/15 05:32:12;;;;;;;16.83;11.87;;;10.20;99.90;;;;;;5022843;28;20048;-87
2023/05/15 05:34:37;;;;;;;17.63;11.97;;;10.30;99.90;;;;;;5022920;28;20528;-87
2023/05/15 05:37:03;;;;;;;14.67;12.67;;;10.40;99.90;;;;;;5024318;28;20029;-78
2023/05/15 05:39:30;;;;;;;13.48;11.82;;;10.40;99.90;;;;;;5022536;28;20018;-86
2023/05/15 05:41:56;;;;;;;13.35;11.88;;;10.50;99.90;;;;;;5020331;28;20080;-87
2023/05/15 05:44:22;;;;;;;13.45;11.25;;;10.50;99.90;;;;;;5017106;28;20853;-87
2023/05/15 05:46:51;;;;;;;14.48;11.52;;;10.50;99.90;;;;;;5018750;28;20041;-87
2023/05/15 05:49:16;;;;;;;14.87;11.33;;;10.50;99.90;;;;;;5018037;28;20048;-87
2023/05/15 05:51:44;;;;;;;13.57;11.10;;;10.60;99.90;;;;;;5017921;28;20627;-86
2023/05/15 05:54:10;;;;;;;16.05;11.30;;;10.60;99.90;;;;;;5017301;28;20036;-88
2023/05/15 05:56:36;;;;;;;14.25;11.20;;;10.60;99.90;;;;;;5018236;28;20030;-87
2023/05/15 05:59:01;;;;;;;13.70;10.90;;;10.60;99.90;;;;;;5016899;28;20053;-87
2023/05/15 06:01:27;;;;;;;17.63;11.25;;;10.70;99.90;;;;;;5017716;28;20037;-87
2023/05/15 06:03:54;;;;;;;14.43;11.18;;;10.80;99.90;;;;;;5017490;28;20034;-87
2023/05/15 06:06:20;;;;;;;12.60;11.13;;;10.80;99.90;;;;;;5018384;28;20052;-87
2023/05/15 06:08:45;;;;;;;14.82;11.57;;;10.80;99.90;;;;;;5017106;28;20029;-86
2023/05/15 06:11:11;;;;;;;16.67;11.00;;;10.80;99.90;;;;;;5017161;28;20039;-86
2023/05/15 06:13:36;;;;;;;16.05;11.50;;;10.90;99.90;;;;;;5018732;28;20048;-86
2023/05/15 06:16:02;;;;;;;13.85;10.98;;;10.90;99.90;;;;;;5019867;28;20044;-87
2023/05/15 06:18:27;;;;;;;14.73;12.15;;;10.90;99.90;;;;;;5017508;28;20033;-87
2023/05/15 06:20:53;;;;;;;13.23;11.10;;;10.90;99.90;;;;;;5016162;28;20120;-86
2023/05/15 06:23:18;;;;;;;15.13;11.35;;;10.90;99.90;;;;;;5020142;28;20118;-85
2023/05/15 06:25:44;;;;;;;14.05;10.85;;;10.90;99.90;;;;;;5021150;28;20061;-86
2023/05/15 06:28:09;;;;;;;18.02;10.82;;;10.90;99.90;;;;;;5019308;28;20025;-87
2023/05/15 06:30:35;;;;;;;16.15;11.43;;;11.00;99.90;;;;;;5017229;28;20030;-85
2023/05/15 06:33:00;;;;;;;15.50;10.98;;;11.00;99.90;;;;;;5018354;28;20020;-86
2023/05/15 06:35:26;;;;;;;13.27;10.32;;;11.10;99.90;;;;;;5021071;28;20026;-85
2023/05/15 06:37:52;;;;;;;12.82;10.45;;;11.20;99.90;;;;;;5022051;28;20048;-85
2023/05/15 06:40:17;;;;;;;14.15;10.77;;;11.30;99.90;;;;;;5021046;28;20116;-85
2023/05/15 06:42:43;;;;;;;12.43;9.93;;;11.40;99.90;;;;;;5022957;28;20083;-84
2023/05/15 06:45:09;;;;;;;10.82;9.57;;;11.50;99.90;;;;;;5022725;28;20033;-86
2023/05/15 06:47:34;;;;;;;13.52;10.70;;;11.60;99.90;;;;;;5021963;28;20030;-85
2023/05/15 06:50:00;;;;;;;12.15;9.98;;;11.70;99.90;;;;;;5021548;28;20037;-85
2023/05/15 06:52:25;;;;;;;13.70;9.77;;;11.70;99.90;;;;;;5026717;28;20037;-84
2023/05/15 06:54:51;;;;;;;13.20;9.60;;;11.80;99.90;;;;;;5024198;28;20121;-84
2023/05/15 06:57:17;;;;;;;12.88;9.93;;;11.80;99.90;;;;;;5024310;28;20045;-84
2023/05/15 06:59:43;;;;;;;12.32;9.90;;;11.80;99.90;;;;;;5027574;28;20057;-84
2023/05/15 07:02:08;;;;;;;12.07;9.55;;;11.90;99.90;;;;;;5026460;28;20470;-83
2023/05/15 07:04:34;;;;;;;13.23;9.70;;;11.90;99.90;;;;;;5028289;28;20370;-82
2023/05/15 07:07:00;;;;;;;11.43;9.23;;;11.90;99.90;;;;;;5032428;28;20045;-83
2023/05/15 07:09:25;;;;;;;10.88;8.80;;;11.90;99.90;;;;;;5028918;28;20022;-82
2023/05/15 07:11:51;;;;;;;12.65;9.27;;;11.90;99.90;;;;;;5025157;28;20037;-83
2023/05/15 07:14:16;;;;;;;11.05;8.60;;;12.00;99.90;;;;;;5025308;28;20036;-83
2023/05/15 07:16:42;;;;;;;10.20;9.10;;;12.00;99.90;;;;;;5025955;28;20029;-83
2023/05/15 07:19:08;;;;;;;10.38;9.10;;;12.10;99.90;;;;;;5025277;28;20022;-83
2023/05/15 07:21:34;;;;;;;11.93;8.85;;;12.20;99.90;;;;;;5025196;28;20032;-83
2023/05/15 07:24:00;;;;;;;12.52;8.13;;;12.30;99.90;;;;;;5022315;28;20033;-82
2023/05/15 07:26:25;;;;;;;9.98;8.07;;;12.50;99.90;;;;;;5023466;28;20033;-82
2023/05/15 07:28:51;;;;;;;10.48;8.63;;;12.60;99.90;;;;;;5023581;28;20029;-83
2023/05/15 07:31:16;;;;;;;10.23;8.13;;;12.70;99.90;;;;;;5022907;28;20033;-83
2023/05/15 07:33:42;;;;;;;10.48;6.88;;;12.80;99.90;;;;;;5018905;28;20809;-83
2023/05/15 07:36:07;;;;;;;10.43;7.72;;;12.90;99.90;;;;;;5021980;28;20049;-83
2023/05/15 07:38:33;;;;;;;9.77;6.82;;;13.10;99.90;;;;;;5006161;28;21338;-83
2023/05/15 07:40:58;;;;;;;10.32;7.50;;;13.20;99.90;;;;;;5022271;28;20029;-83
2023/05/15 07:43:24;;;;;;;10.82;7.30;;;13.30;99.90;;;;;;5025636;28;20025;-83
2023/05/15 07:45:50;;;;;;;8.20;6.85;;;13.50;99.90;;;;;;5024871;28;20049;-83
2023/05/15 07:48:17;;;;;;;10.40;6.88;;;13.70;99.90;;;;;;5025604;28;20029;-83
2023/05/15 07:50:45;;;;;;;8.45;6.78;;;13.90;99.90;;;;;;5025600;28;21300;-83
2023/05/15 07:53:11;;;;;;;8.93;6.55;;;14.10;99.90;;;;;;5025963;28;20124;-83
2023/05/15 07:55:37;;;;;;;9.75;6.45;;;14.20;99.90;;;;;;5026560;28;20056;-83
2023/05/15 07:58:02;;;;;;;10.65;7.38;;;14.30;99.90;;;;;;5025910;28;20060;-83
2023/05/15 08:00:28;;;;;;;8.13;6.53;;;14.30;99.90;;;;;;5026428;28;20039;-82
2023/05/15 08:02:53;;;;;;;10.20;6.85;;;14.30;99.90;;;;;;5024152;28;20025;-82
2023/05/15 08:05:19;;;;;;;10.45;6.90;;;14.40;99.90;;;;;;5026765;28;20315;-83
2023/05/15 08:07:45;;;;;;;10.20;6.88;;;14.30;99.90;;;;;;5028229;28;20778;-83
2023/05/15 08:10:10;;;;;;;8.00;6.75;;;14.20;99.90;;;;;;5026036;28;20038;-82
2023/05/15 08:12:36;;;;;;;13.40;7.57;;;14.20;99.90;;;;;;5025431;28;20040;-83
2023/05/15 08:15:01;;;;;;;10.05;6.72;;;14.20;99.90;;;;;;5027475;28;20033;-83
2023/05/15 08:17:27;;;;;;;7.97;6.95;;;14.20;99.90;;;;;;5027811;28;20044;-83
2023/05/15 08:19:53;;;;;;;8.45;6.63;;;14.20;99.90;;;;;;5028205;28;20484;-82
2023/05/15 08:22:18;;;;;;;8.18;6.53;;;14.10;99.90;;;;;;5027538;28;20029;-83
2023/05/15 08:24:44;;;;;;;9.27;6.85;;;14.10;99.90;;;;;;5029816;28;20126;-83
2023/05/15 08:27:10;;;;;;;7.75;6.57;;;14.10;99.90;;;;;;5029132;28;20049;-84
2023/05/15 08:29:36;;;;;;;8.23;5.75;;;14.10;99.90;;;;;;5030553;28;20030;-84
2023/05/15 08:32:02;;;;;;;7.13;6.38;;;14.20;99.90;;;;;;5031210;28;20032;-83
2023/05/15 08:34:28;;;;;;;7.15;6.05;;;14.40;99.90;;;;;;5030628;28;20367;-83
2023/05/15 08:36:55;;;;;;;7.53;5.70;;;14.50;99.90;;;;;;5031331;28;20040;-82
2023/05/15 08:39:21;;;;;;;7.65;6.13;;;14.50;99.90;;;;;;5031008;28;20022;-84
2023/05/15 08:42:13;;;;;;;8.55;6.70;;;14.60;99.90;;;;;;5034256;28;20025;-83
2023/05/15 08:44:39;;;;;;;8.45;5.93;;;14.50;99.90;;;;;;5031330;28;20037;-83
2023/05/15 08:47:06;;;;;;;8.35;6.10;;;14.40;99.90;;;;;;5032665;28;20034;-83
2023/05/15 08:49:53;;;;;;;6.40;5.20;;;14.50;99.90;;;;;;5027943;28;20029;-83
2023/05/15 08:52:18;;;;;;;7.68;5.57;;;14.60;99.90;;;;;;5033233;28;20041;-83
2023/05/15 08:54:46;;;;;;;6.53;5.00;;;14.70;99.90;;;;;;5031419;28;20037;-83
2023/05/15 08:57:13;;;;;;;5.55;4.32;;;14.90;99.90;;;;;;5033241;28;20035;-83
2023/05/15 08:59:39;;;;;;;8.77;5.28;;;15.00;99.90;;;;;;5032134;28;20033;-83
2023/05/15 09:02:04;;;;;;;9.05;5.57;;;15.00;99.90;;;;;;5028694;28;20047;-84
2023/05/15 09:04:30;;;;;;;6.47;4.70;;;15.10;99.90;;;;;;5025807;28;20045;-83
2023/05/15 09:06:59;;;;;;;7.75;5.82;;;15.20;99.90;;;;;;5025275;28;20048;-85
2023/05/15 09:09:26;;;;;;;6.95;5.45;;;15.30;99.90;;;;;;5026385;28;21061;-84
2023/05/15 09:11:52;;;;;;;7.63;5.60;;;15.30;99.90;;;;;;5012458;28;20481;-83
2023/05/15 09:14:18;;;;;;;8.60;5.28;;;15.20;99.90;;;;;;5020529;28;20032;-83
2023/05/15 09:16:45;;;;;;;8.68;5.82;;;15.20;99.90;;;;;;5024690;28;20038;-84
2023/05/15 09:19:12;;;;;;;6.47;5.22;;;15.40;99.90;;;;;;5028816;28;20140;-84
2023/05/15 09:21:38;;;;;;;8.07;5.97;;;15.70;99.90;;;;;;5028193;28;20037;-83
2023/05/15 09:24:18;;;;;;;8.55;5.70;;;16.00;99.90;;;;;;5026322;28;20041;-83
2023/05/15 09:26:45;;;;;;;8.15;5.93;;;16.20;99.90;;;;;;5017286;28;20094;-78
2023/05/15 09:29:14;;;;;;;7.60;5.53;;;16.30;99.90;;;;;;5018453;28;20029;-79
2023/05/15 09:31:39;;;;;;;7.68;5.20;;;16.50;99.90;;;;;;5017399;28;21434;-80
2023/05/15 09:34:05;;;;;;;8.77;5.72;;;16.40;99.90;;;;;;5016598;28;20082;-79
2023/05/15 09:36:31;;;;;;;6.13;5.45;;;16.50;99.90;;;;;;5018904;28;20037;-78
2023/05/15 09:38:59;;;;;;;9.45;5.72;;;16.80;99.90;;;;;;5020623;28;20029;-77
2023/05/15 09:41:25;;;;;;;7.80;5.47;;;17.10;99.90;;;;;;5032115;28;20037;-83
2023/05/15 09:43:53;;;;;;;8.70;5.28;;;17.30;99.90;;;;;;5031143;28;20029;-84
2023/05/15 09:46:18;;;;;;;5.95;5.30;;;17.70;99.90;;;;;;5031091;28;20053;-83
2023/05/15 09:48:44;;;;;;;6.82;5.82;;;17.80;99.90;;;;;;5036467;28;20054;-83
2023/05/15 09:51:17;;;;;;;9.23;5.45;;;17.60;99.90;;;;;;5038814;28;20519;-83
2023/05/15 09:53:51;;;;;;;7.68;5.18;;;17.40;99.90;;;;;;5036081;28;20049;-84
2023/05/15 09:56:17;;;;;;;6.95;5.63;;;17.00;99.90;;;;;;5033726;28;20037;-83
2023/05/15 09:58:58;;;;;;;6.50;5.40;;;16.80;99.90;;;;;;5036420;28;20043;-84
2023/05/15 10:01:25;;;;;;;7.60;5.80;;;16.60;99.90;;;;;;5035614;28;20056;-83
2023/05/15 10:04:01;;;;;;;7.57;5.95;;;16.70;99.90;;;;;;5030847;28;21518;-83
2023/05/15 10:06:33;;;;;;;8.10;5.18;;;17.00;99.90;;;;;;5030834;28;20053;-84
2023/05/15 10:09:01;;;;;;;6.63;5.63;;;17.10;99.90;;;;;;5033153;28;20082;-83
2023/05/15 10:11:28;;;;;;;7.57;5.38;;;17.20;99.90;;;;;;5027868;28;20072;-84
2023/05/15 10:13:54;;;;;;;6.13;5.47;;;17.30;99.90;;;;;;5026626;28;20049;-84
2023/05/15 10:16:23;;;;;;;8.73;5.65;;;17.40;99.90;;;;;;5028467;28;20548;-84
2023/05/15 10:18:50;;;;;;;8.15;5.22;;;17.30;99.90;;;;;;5029386;28;20037;-84
2023/05/15 10:21:18;;;;;;;6.50;5.53;;;17.20;99.90;;;;;;5033476;28;20084;-83
2023/05/15 10:23:46;;;;;;;7.57;5.35;;;17.00;99.90;;;;;;5035177;28;20026;-84
2023/05/15 10:26:22;;;;;;;12.45;5.85;;;16.80;99.90;;;;;;5035206;28;20150;-83
2023/05/15 10:28:49;;;;;;;7.15;5.57;;;16.90;99.90;;;;;;5035761;28;20231;-84
2023/05/15 10:31:17;;;;;;;6.80;4.88;;;17.30;99.90;;;;;;5028963;28;20033;-79
2023/05/15 10:33:43;;;;;;;5.65;4.70;;;17.90;99.90;;;;;;5018153;28;21347;-83
2023/05/15 10:36:09;;;;;;;4.47;3.80;;;18.30;99.90;;;;;;5019351;28;20041;-77
2023/05/15 10:38:36;;;;;;;6.72;4.15;;;18.80;99.90;;;;;;5020370;28;20033;-81
2023/05/15 10:41:04;;;;;;;9.07;4.55;;;19.10;99.90;;;;;;5018130;28;20087;-77
2023/05/15 10:43:30;;;;;;;5.78;4.88;;;19.40;99.90;;;;;;5017758;28;20494;-77
2023/05/15 10:45:57;;;;;;;5.43;4.43;;;19.70;99.90;;;;;;5018045;28;20053;-78
2023/05/15 10:48:23;;;;;;;5.13;4.07;;;19.70;99.90;;;;;;5019010;28;20030;-80
2023/05/15 10:50:49;;;;;;;5.32;4.07;;;19.50;99.90;;;;;;5018528;28;20049;-77
2023/05/15 10:53:15;;;;;;;5.18;3.75;;;19.20;99.90;;;;;;5017309;28;20026;-76
2023/05/15 10:55:41;;;;;;;5.30;4.28;;;19.00;99.90;;;;;;5019098;28;20087;-77
2023/05/15 10:58:10;;;;;;;6.80;4.30;;;18.80;99.90;;;;;;5019126;28;20383;-79
2023/05/15 11:00:43;;;;;;;7.22;4.68;;;18.60;99.90;;;;;;5020261;28;20026;-78
2023/05/15 11:03:33;;;;;;;6.38;4.65;;;18.30;99.90;;;;;;5017373;28;20064;-79
2023/05/15 11:06:11;;;;;;;6.03;4.18;;;18.00;99.90;;;;;;5018659;28;20060;-78
2023/05/15 11:08:38;;;;;;;6.60;5.22;;;17.80;99.90;;;;;;5018317;28;20034;-77
2023/05/15 11:11:04;;;;;;;6.47;5.22;;;17.80;99.90;;;;;;5017460;28;20517;-78
2023/05/15 11:14:21;;;;;;;4.07;3.50;;;17.70;99.90;;;;;;5019040;28;20025;-77
2023/05/15 11:16:52;;;;;;;5.47;3.55;;;17.80;99.90;;;;;;4956909;28;20038;-77
2023/05/15 11:19:49;;;;;;;4.00;3.05;;;17.70;99.90;;;;;;5020446;28;20513;-77
2023/05/15 11:22:18;;;;;;;4.30;3.15;;;17.80;99.90;;;;;;4995464;28;20088;-77
2023/05/15 11:24:56;;;;;;;4.82;3.47;;;18.10;99.90;;;;;;5020284;28;21111;-77
2023/05/15 11:27:40;;;;;;;4.70;3.17;;;18.50;99.90;;;;;;5024510;28;21534;-78
2023/05/15 11:30:09;;;;;;;4.40;3.25;;;19.00;99.90;;;;;;5023621;28;20032;-78
2023/05/15 11:32:42;;;;;;;5.72;3.67;;;19.80;99.90;;;;;;5022248;28;20029;-77
2023/05/15 11:35:18;;;;;;;9.55;3.53;;;20.40;99.90;;;;;;5019784;28;20163;-80
2023/05/15 11:37:52;;;;;;;3.92;3.03;;;20.90;99.90;;;;;;5024742;28;20037;-78
2023/05/15 11:40:25;;;;;;;;;;;20.80;99.90;;;;;;5021111;28;20026;-81
2023/05/15 11:43:19;;;;;;;4.35;2.80;;;20.60;99.90;;;;;;5018297;28;19928;-79
2023/05/15 11:45:47;;;;;;;4.00;2.58;;;20.40;99.90;;;;;;5018486;28;20629;-78
2023/05/15 11:48:15;;;;;;;2.03;1.83;;;20.10;99.90;;;;;;5019437;28;20044;-79
2023/05/15 11:50:41;;;;;;;2.25;1.50;;;19.60;99.90;;;;;;5018322;28;20151;-77
2023/05/15 11:53:09;;;;;;;4.10;1.70;;;19.10;99.90;;;;;;5019524;28;20025;-77
2023/05/15 11:55:36;;;;;;;3.95;1.70;;;18.60;99.90;;;;;;5020081;28;20026;-75
2023/05/15 11:58:03;;;;;;;1.98;1.60;;;18.20;99.90;;;;;;5020539;28;20109;-81
2023/05/15 12:00:29;;;;;;;3.92;2.53;;;17.80;99.90;;;;;;5021679;28;20399;-79
2023/05/15 12:02:55;;;;;;;5.43;2.55;;;17.50;99.90;;;;;;5017098;28;20038;-77
2023/05/15 12:05:21;;;;;;;8.13;2.53;;;17.20;99.90;;;;;;5023305;28;20029;-81
2023/05/15 12:07:47;;;;;;;6.15;2.45;;;16.70;99.90;;;;;;5020921;28;20030;-84
2023/05/15 12:10:13;;;;;;;6.60;2.83;;;16.10;99.90;;;;;;5023140;28;20048;-81
2023/05/15 12:12:43;;;;;;;7.15;3.25;;;15.60;99.90;;;;;;5021526;28;20037;-80
2023/05/15 12:15:10;;;;;;;6.00;4.20;;;14.90;99.90;;;;;;5023665;28;20202;-81
2023/05/15 12:17:37;;;;;;;8.60;4.28;;;14.40;99.90;;;;;;5022781;28;20514;-81
2023/05/15 12:20:04;;;;;;;6.47;4.40;;;14.10;99.90;;;;;;5022206;28;20125;-81
2023/05/15 12:22:35;;;;;;;5.22;3.97;;;13.90;99.90;;;;;;5025081;28;20565;-81
2023/05/15 12:25:01;;;;;;;7.63;4.25;;;13.60;99.90;;;;;;5028276;28;20041;-82
2023/05/15 12:27:27;;;;;;;6.88;4.30;;;13.40;99.90;;;;;;5028169;28;20041;-81
2023/05/15 12:29:53;;;;;;;6.53;4.28;;;13.20;99.90;;;;;;5024758;28;20025;-81
2023/05/15 12:32:19;;;;;;;9.07;4.45;;;13.10;99.90;;;;;;5025737;28;20037;-81
2023/05/15 12:34:47;;;;;;;8.40;4.07;;;13.00;99.90;;;;;;5024930;28;20041;-81
2023/05/15 12:37:13;;;;;;;4.60;4.00;;;12.90;99.90;;;;;;5026879;28;20044;-79
2023/05/15 12:40:10;;;;;;;7.60;4.30;;;13.00;99.90;;;;;;5030205;28;20030;-82
2023/05/15 12:42:40;;;;;;;8.85;4.68;;;13.00;99.90;;;;;;5016254;28;20057;-81